sensor_id;sensor_type;location;lat;lon;timestamp;P1;durP1;ratioP1;P2;durP2;ratioP2
21665;SDS011;10994;45.486;9.190;2023-05-10T08:09:53;7.50;;;4.00;;
21665;SDS011;10994;45.486;9.190;2023-05-10T08:12:18;3.80;;;3.40;;
21665;SDS011;10994;45.486;9.190;2023-05-10T08:14:44;3.53;;;3.23;;
21665;SDS011;10994;45.486;9.190;2023-05-10T08:17:10;4.27;;;3.50;;
21665;SDS011;10994;45.486;9.190;2023-05-10T08:19:35;4.90;;;3.43;;
21665;SDS011;10994;45.486;9.190;2023-05-10T08:22:01;3.70;;;3.33;;
21665;SDS011;10994;45.486;9.190;2023-05-10T08:24:27;4.20;;;3.27;;
21665;SDS011;10994;45.486;9.190;2023-05-10T08:26:52;3.33;;;3.03;;
21665;SDS011;10994;45.486;9.190;2023-05-10T08:29:18;4.43;;;3.43;;
21665;SDS011;10994;45.486;9.190;2023-05-10T08:31:44;4.00;;;3.50;;
21665;SDS011;10994;45.486;9.190;2023-05-10T08:34:10;6.57;;;4.17;;
21665;SDS011;10994;45.486;9.190;2023-05-10T08:36:36;4.20;;;3.20;;
21665;SDS011;10994;45.486;9.190;2023-05-10T08:39:02;3.10;;;2.73;;
21665;SDS011;10994;45.486;9.190;2023-05-10T08:41:27;3.83;;;2.93;;
21665;SDS011;10994;45.486;9.190;2023-05-10T08:43:55;3.07;;;2.77;;
21665;SDS011;10994;45.486;9.190;2023-05-10T08:46:21;3.23;;;2.93;;
21665;SDS011;10994;45.486;9.190;2023-05-10T08:48:48;5.97;;;3.87;;
21665;SDS011;10994;45.486;9.190;2023-05-10T08:51:18;2.93;;;2.63;;
21665;SDS011;10994;45.486;9.190;2023-05-10T08:53:47;3.10;;;2.80;;
21665;SDS011;10994;45.486;9.190;2023-05-10T08:56:13;3.03;;;2.47;;
21665;SDS011;10994;45.486;9.190;2023-05-10T08:58:40;2.87;;;2.57;;
21665;SDS011;10994;45.486;9.190;2023-05-10T09:01:06;3.57;;;2.43;;
21665;SDS011;10994;45.486;9.190;2023-05-10T09:03:33;3.07;;;2.77;;
21665;SDS011;10994;45.486;9.190;2023-05-10T09:06:00;3.37;;;2.77;;
21665;SDS011;10994;45.486;9.190;2023-05-10T09:08:26;4.30;;;3.83;;
21665;SDS011;10994;45.486;9.190;2023-05-10T09:10:52;3.37;;;3.07;;
21665;SDS011;10994;45.486;9.190;2023-05-10T09:13:21;3.37;;;2.83;;
21665;SDS011;10994;45.486;9.190;2023-05-10T09:15:49;3.63;;;3.10;;
21665;SDS011;10994;45.486;9.190;2023-05-10T09:18:14;4.73;;;3.03;;
21665;SDS011;10994;45.486;9.190;2023-05-10T09:20:40;4.70;;;4.30;;
21665;SDS011;10994;45.486;9.190;2023-05-10T09:23:06;3.27;;;2.27;;
21665;SDS011;10994;45.486;9.190;2023-05-10T09:25:32;3.90;;;2.60;;
21665;SDS011;10994;45.486;9.190;2023-05-10T09:27:58;5.07;;;4.20;;
21665;SDS011;10994;45.486;9.190;2023-05-10T09:30:28;7.90;;;3.23;;
21665;SDS011;10994;45.486;9.190;2023-05-10T09:32:55;2.93;;;2.60;;
21665;SDS011;10994;45.486;9.190;2023-05-10T09:35:23;3.57;;;2.90;;
21665;SDS011;10994;45.486;9.190;2023-05-10T09:37:50;4.13;;;2.70;;
21665;SDS011;10994;45.486;9.190;2023-05-10T09:40:19;4.50;;;2.97;;
21665;SDS011;10994;45.486;9.190;2023-05-10T09:43:00;3.23;;;2.93;;
21665;SDS011;10994;45.486;9.190;2023-05-10T09:45:27;3.67;;;3.37;;
21665;SDS011;10994;45.486;9.190;2023-05-10T09:47:54;4.63;;;3.00;;
21665;SDS011;10994;45.486;9.190;2023-05-10T09:50:20;2.97;;;2.40;;
21665;SDS011;10994;45.486;9.190;2023-05-10T09:55:38;2.87;;;2.67;;
21665;SDS011;10994;45.486;9.190;2023-05-10T09:58:05;2.60;;;2.40;;
21665;SDS011;10994;45.486;9.190;2023-05-10T10:00:36;3.70;;;2.77;;
21665;SDS011;10994;45.486;9.190;2023-05-10T10:03:03;3.17;;;2.80;;
21665;SDS011;10994;45.486;9.190;2023-05-10T10:05:32;3.10;;;2.83;;
21665;SDS011;10994;45.486;9.190;2023-05-10T10:07:59;2.40;;;2.20;;
21665;SDS011;10994;45.486;9.190;2023-05-10T10:10:28;2.87;;;2.57;;
21665;SDS011;10994;45.486;9.190;2023-05-10T10:12:55;4.33;;;3.93;;
21665;SDS011;10994;45.486;9.190;2023-05-10T10:15:21;2.80;;;2.30;;
21665;SDS011;10994;45.486;9.190;2023-05-10T10:17:48;2.70;;;2.50;;
21665;SDS011;10994;45.486;9.190;2023-05-10T10:20:15;2.90;;;2.70;;
21665;SDS011;10994;45.486;9.190;2023-05-10T10:22:41;2.97;;;2.70;;
21665;SDS011;10994;45.486;9.190;2023-05-10T10:25:10;3.00;;;2.80;;
21665;SDS011;10994;45.486;9.190;2023-05-10T10:27:43;3.13;;;2.83;;
21665;SDS011;10994;45.486;9.190;2023-05-10T10:30:16;4.37;;;3.20;;
21665;SDS011;10994;45.486;9.190;2023-05-10T10:35:38;2.77;;;2.57;;
21665;SDS011;10994;45.486;9.190;2023-05-10T10:38:07;2.63;;;2.40;;
21665;SDS011;10994;45.486;9.190;2023-05-10T10:40:33;3.13;;;2.93;;
21665;SDS011;10994;45.486;9.190;2023-05-10T10:48:38;4.23;;;2.70;;
21665;SDS011;10994;45.486;9.190;2023-05-10T10:51:05;2.63;;;2.43;;
21665;SDS011;10994;45.486;9.190;2023-05-10T10:53:31;3.40;;;2.40;;
21665;SDS011;10994;45.486;9.190;2023-05-10T10:56:07;3.63;;;2.50;;
21665;SDS011;10994;45.486;9.190;2023-05-10T10:58:38;2.70;;;2.50;;
21665;SDS011;10994;45.486;9.190;2023-05-10T11:01:11;3.20;;;2.80;;
21665;SDS011;10994;45.486;9.190;2023-05-10T11:06:30;2.97;;;2.67;;
21665;SDS011;10994;45.486;9.190;2023-05-10T11:09:06;4.03;;;2.40;;
21665;SDS011;10994;45.486;9.190;2023-05-10T11:11:34;3.57;;;3.00;;
21665;SDS011;10994;45.486;9.190;2023-05-10T11:14:04;2.80;;;2.50;;
21665;SDS011;10994;45.486;9.190;2023-05-10T11:16:42;4.50;;;3.00;;
21665;SDS011;10994;45.486;9.190;2023-05-10T11:19:13;3.30;;;2.97;;
21665;SDS011;10994;45.486;9.190;2023-05-10T11:21:47;3.43;;;2.70;;
21665;SDS011;10994;45.486;9.190;2023-05-10T11:24:21;2.73;;;2.50;;
21665;SDS011;10994;45.486;9.190;2023-05-10T11:26:50;2.67;;;2.47;;
21665;SDS011;10994;45.486;9.190;2023-05-10T11:29:16;3.70;;;3.23;;
21665;SDS011;10994;45.486;9.190;2023-05-10T11:31:43;3.57;;;2.93;;
21665;SDS011;10994;45.486;9.190;2023-05-10T11:34:10;3.13;;;2.90;;
21665;SDS011;10994;45.486;9.190;2023-05-10T11:36:37;3.00;;;2.60;;
21665;SDS011;10994;45.486;9.190;2023-05-10T11:39:03;2.70;;;2.50;;
21665;SDS011;10994;45.486;9.190;2023-05-10T11:41:30;4.00;;;2.93;;
21665;SDS011;10994;45.486;9.190;2023-05-10T11:43:57;4.07;;;3.07;;
21665;SDS011;10994;45.486;9.190;2023-05-10T11:46:24;2.77;;;2.57;;
21665;SDS011;10994;45.486;9.190;2023-05-10T11:48:56;3.30;;;3.00;;
21665;SDS011;10994;45.486;9.190;2023-05-10T11:51:25;3.03;;;2.80;;
21665;SDS011;10994;45.486;9.190;2023-05-10T11:53:52;5.00;;;3.67;;
21665;SDS011;10994;45.486;9.190;2023-05-10T11:56:20;3.67;;;3.30;;
21665;SDS011;10994;45.486;9.190;2023-05-10T11:58:51;4.10;;;3.80;;
21665;SDS011;10994;45.486;9.190;2023-05-10T12:01:21;4.30;;;3.90;;
21665;SDS011;10994;45.486;9.190;2023-05-10T12:03:48;4.27;;;3.80;;
21665;SDS011;10994;45.486;9.190;2023-05-10T12:06:15;4.27;;;3.83;;
21665;SDS011;10994;45.486;9.190;2023-05-10T12:08:44;5.30;;;3.77;;
21665;SDS011;10994;45.486;9.190;2023-05-10T12:11:11;3.83;;;3.53;;
21665;SDS011;10994;45.486;9.190;2023-05-10T12:13:42;4.13;;;3.77;;
21665;SDS011;10994;45.486;9.190;2023-05-10T12:16:18;3.60;;;3.30;;
21665;SDS011;10994;45.486;9.190;2023-05-10T12:18:49;4.70;;;3.17;;
21665;SDS011;10994;45.486;9.190;2023-05-10T12:21:19;5.10;;;3.60;;
21665;SDS011;10994;45.486;9.190;2023-05-10T12:23:50;4.07;;;3.20;;
21665;SDS011;10994;45.486;9.190;2023-05-10T12:26:17;3.33;;;3.03;;
21665;SDS011;10994;45.486;9.190;2023-05-10T12:28:46;4.10;;;2.77;;
21665;SDS011;10994;45.486;9.190;2023-05-10T12:31:11;3.50;;;3.20;;
21665;SDS011;10994;45.486;9.190;2023-05-10T12:33:41;3.50;;;2.90;;
21665;SDS011;10994;45.486;9.190;2023-05-10T12:36:11;3.67;;;3.13;;
21665;SDS011;10994;45.486;9.190;2023-05-10T12:38:42;3.80;;;3.23;;
21665;SDS011;10994;45.486;9.190;2023-05-10T12:41:09;3.37;;;3.07;;
21665;SDS011;10994;45.486;9.190;2023-05-10T12:43:37;6.07;;;4.83;;
21665;SDS011;10994;45.486;9.190;2023-05-10T12:46:04;5.10;;;4.33;;
21665;SDS011;10994;45.486;9.190;2023-05-10T12:48:36;4.53;;;3.93;;
21665;SDS011;10994;45.486;9.190;2023-05-10T12:51:03;10.97;;;8.37;;
21665;SDS011;10994;45.486;9.190;2023-05-10T12:53:30;6.40;;;5.47;;
21665;SDS011;10994;45.486;9.190;2023-05-10T12:55:56;3.50;;;3.13;;
21665;SDS011;10994;45.486;9.190;2023-05-10T12:58:22;3.60;;;3.07;;
21665;SDS011;10994;45.486;9.190;2023-05-10T13:00:48;2.40;;;2.20;;
21665;SDS011;10994;45.486;9.190;2023-05-10T13:03:14;2.63;;;2.43;;
21665;SDS011;10994;45.486;9.190;2023-05-10T13:05:40;3.57;;;3.03;;
21665;SDS011;10994;45.486;9.190;2023-05-10T13:08:06;3.27;;;2.70;;
21665;SDS011;10994;45.486;9.190;2023-05-10T13:10:32;3.37;;;3.07;;
21665;SDS011;10994;45.486;9.190;2023-05-10T13:12:58;3.27;;;2.97;;
21665;SDS011;10994;45.486;9.190;2023-05-10T13:15:24;4.53;;;3.40;;
21665;SDS011;10994;45.486;9.190;2023-05-10T13:17:50;3.97;;;2.83;;
21665;SDS011;10994;45.486;9.190;2023-05-10T13:20:16;3.80;;;2.80;;
21665;SDS011;10994;45.486;9.190;2023-05-10T13:22:43;3.07;;;2.60;;
21665;SDS011;10994;45.486;9.190;2023-05-10T13:25:09;3.80;;;2.77;;
21665;SDS011;10994;45.486;9.190;2023-05-10T13:27:35;3.70;;;3.40;;
21665;SDS011;10994;45.486;9.190;2023-05-10T13:30:02;2.97;;;2.70;;
21665;SDS011;10994;45.486;9.190;2023-05-10T13:32:29;4.73;;;3.73;;
21665;SDS011;10994;45.486;9.190;2023-05-10T13:34:55;4.27;;;3.00;;
21665;SDS011;10994;45.486;9.190;2023-05-10T13:37:21;4.17;;;2.90;;
21665;SDS011;10994;45.486;9.190;2023-05-10T13:39:47;4.27;;;3.70;;
21665;SDS011;10994;45.486;9.190;2023-05-10T13:42:13;3.20;;;2.90;;
21665;SDS011;10994;45.486;9.190;2023-05-10T13:44:39;6.53;;;3.10;;
21665;SDS011;10994;45.486;9.190;2023-05-10T13:47:05;6.90;;;2.73;;
21665;SDS011;10994;45.486;9.190;2023-05-10T13:49:31;3.53;;;3.23;;
21665;SDS011;10994;45.486;9.190;2023-05-10T13:51:57;3.80;;;3.20;;
21665;SDS011;10994;45.486;9.190;2023-05-10T13:54:23;6.40;;;3.83;;
21665;SDS011;10994;45.486;9.190;2023-05-10T13:56:49;3.43;;;3.10;;
21665;SDS011;10994;45.486;9.190;2023-05-10T13:59:14;4.77;;;2.93;;
21665;SDS011;10994;45.486;9.190;2023-05-10T14:01:41;5.50;;;3.50;;
21665;SDS011;10994;45.486;9.190;2023-05-10T14:04:07;3.30;;;3.00;;
21665;SDS011;10994;45.486;9.190;2023-05-10T14:06:35;3.27;;;2.93;;
21665;SDS011;10994;45.486;9.190;2023-05-10T14:09:01;3.43;;;3.13;;
21665;SDS011;10994;45.486;9.190;2023-05-10T14:11:28;3.40;;;3.10;;
21665;SDS011;10994;45.486;9.190;2023-05-10T14:13:54;4.73;;;3.37;;
21665;SDS011;10994;45.486;9.190;2023-05-10T14:16:19;3.30;;;3.00;;
21665;SDS011;10994;45.486;9.190;2023-05-10T14:18:46;4.07;;;3.60;;
21665;SDS011;10994;45.486;9.190;2023-05-10T14:21:11;5.80;;;3.73;;
21665;SDS011;10994;45.486;9.190;2023-05-10T14:23:37;3.73;;;3.43;;
21665;SDS011;10994;45.486;9.190;2023-05-10T14:26:03;3.87;;;3.47;;
21665;SDS011;10994;45.486;9.190;2023-05-10T14:28:29;3.87;;;3.20;;
21665;SDS011;10994;45.486;9.190;2023-05-10T14:30:55;3.03;;;2.80;;
21665;SDS011;10994;45.486;9.190;2023-05-10T14:33:21;3.93;;;3.57;;
21665;SDS011;10994;45.486;9.190;2023-05-10T14:35:47;4.23;;;3.63;;
21665;SDS011;10994;45.486;9.190;2023-05-10T14:38:13;4.37;;;3.63;;
21665;SDS011;10994;45.486;9.190;2023-05-10T14:40:39;4.40;;;3.60;;
21665;SDS011;10994;45.486;9.190;2023-05-10T14:43:05;4.13;;;3.67;;
21665;SDS011;10994;45.486;9.190;2023-05-10T14:45:30;6.97;;;3.77;;
21665;SDS011;10994;45.486;9.190;2023-05-10T14:47:56;4.50;;;3.30;;
21665;SDS011;10994;45.486;9.190;2023-05-10T14:50:22;5.23;;;4.43;;
21665;SDS011;10994;45.486;9.190;2023-05-10T14:52:48;3.97;;;3.63;;
21665;SDS011;10994;45.486;9.190;2023-05-10T14:55:14;3.70;;;3.40;;
21665;SDS011;10994;45.486;9.190;2023-05-10T14:57:40;6.07;;;5.57;;
21665;SDS011;10994;45.486;9.190;2023-05-10T15:00:06;4.53;;;3.80;;
21665;SDS011;10994;45.486;9.190;2023-05-10T15:02:33;3.90;;;3.60;;
21665;SDS011;10994;45.486;9.190;2023-05-10T15:04:58;3.77;;;3.47;;
21665;SDS011;10994;45.486;9.190;2023-05-10T15:07:24;3.73;;;3.43;;
21665;SDS011;10994;45.486;9.190;2023-05-10T15:09:50;3.93;;;3.53;;
21665;SDS011;10994;45.486;9.190;2023-05-10T15:12:17;3.93;;;3.60;;
21665;SDS011;10994;45.486;9.190;2023-05-10T15:14:43;4.93;;;3.97;;
21665;SDS011;10994;45.486;9.190;2023-05-10T15:17:09;4.33;;;3.80;;
21665;SDS011;10994;45.486;9.190;2023-05-10T15:19:35;3.27;;;2.97;;
21665;SDS011;10994;45.486;9.190;2023-05-10T15:22:01;9.53;;;3.93;;
21665;SDS011;10994;45.486;9.190;2023-05-10T15:24:27;4.10;;;3.67;;
21665;SDS011;10994;45.486;9.190;2023-05-10T15:26:54;3.23;;;2.97;;
21665;SDS011;10994;45.486;9.190;2023-05-10T15:29:20;3.53;;;3.23;;
21665;SDS011;10994;45.486;9.190;2023-05-10T15:31:51;4.20;;;3.60;;
21665;SDS011;10994;45.486;9.190;2023-05-10T15:34:17;3.77;;;3.47;;
21665;SDS011;10994;45.486;9.190;2023-05-10T15:36:43;4.10;;;3.70;;
21665;SDS011;10994;45.486;9.190;2023-05-10T15:39:10;4.37;;;3.63;;
21665;SDS011;10994;45.486;9.190;2023-05-10T15:41:36;4.00;;;3.37;;
21665;SDS011;10994;45.486;9.190;2023-05-10T15:44:02;3.23;;;2.93;;
21665;SDS011;10994;45.486;9.190;2023-05-10T15:46:28;3.10;;;2.80;;
21665;SDS011;10994;45.486;9.190;2023-05-10T15:48:54;3.40;;;2.87;;
21665;SDS011;10994;45.486;9.190;2023-05-10T15:51:21;3.03;;;2.73;;
21665;SDS011;10994;45.486;9.190;2023-05-10T15:53:47;2.63;;;2.43;;
21665;SDS011;10994;45.486;9.190;2023-05-10T15:56:12;3.13;;;2.83;;
21665;SDS011;10994;45.486;9.190;2023-05-10T15:58:39;3.10;;;2.70;;
21665;SDS011;10994;45.486;9.190;2023-05-10T16:01:05;3.03;;;2.60;;
21665;SDS011;10994;45.486;9.190;2023-05-10T16:03:31;3.97;;;2.90;;
21665;SDS011;10994;45.486;9.190;2023-05-10T16:05:57;3.50;;;3.20;;
21665;SDS011;10994;45.486;9.190;2023-05-10T16:08:23;7.33;;;3.80;;
21665;SDS011;10994;45.486;9.190;2023-05-10T16:10:49;4.37;;;3.10;;
21665;SDS011;10994;45.486;9.190;2023-05-10T16:13:16;7.33;;;5.77;;
21665;SDS011;10994;45.486;9.190;2023-05-10T16:15:41;2.80;;;2.47;;
21665;SDS011;10994;45.486;9.190;2023-05-10T16:18:07;5.73;;;4.43;;
21665;SDS011;10994;45.486;9.190;2023-05-10T16:20:33;11.53;;;9.47;;
21665;SDS011;10994;45.486;9.190;2023-05-10T16:23:00;2.90;;;2.70;;
21665;SDS011;10994;45.486;9.190;2023-05-10T16:25:28;2.77;;;2.57;;
21665;SDS011;10994;45.486;9.190;2023-05-10T16:27:54;2.97;;;2.63;;
21665;SDS011;10994;45.486;9.190;2023-05-10T16:30:21;2.70;;;2.50;;
21665;SDS011;10994;45.486;9.190;2023-05-10T16:32:48;3.10;;;2.83;;
21665;SDS011;10994;45.486;9.190;2023-05-10T16:35:14;3.10;;;2.80;;
21665;SDS011;10994;45.486;9.190;2023-05-10T16:37:40;3.50;;;3.20;;
21665;SDS011;10994;45.486;9.190;2023-05-10T16:40:06;3.00;;;2.53;;
21665;SDS011;10994;45.486;9.190;2023-05-10T16:42:32;2.60;;;2.40;;
21665;SDS011;10994;45.486;9.190;2023-05-10T16:44:58;3.50;;;3.10;;
21665;SDS011;10994;45.486;9.190;2023-05-10T16:47:31;3.50;;;3.00;;
21665;SDS011;10994;45.486;9.190;2023-05-10T16:49:57;4.40;;;2.90;;
21665;SDS011;10994;45.486;9.190;2023-05-10T16:52:23;3.73;;;3.43;;
21665;SDS011;10994;45.486;9.190;2023-05-10T16:54:49;3.70;;;3.17;;
21665;SDS011;10994;45.486;9.190;2023-05-10T16:57:15;4.80;;;4.30;;
21665;SDS011;10994;45.486;9.190;2023-05-10T16:59:41;4.97;;;3.10;;
21665;SDS011;10994;45.486;9.190;2023-05-10T17:02:07;6.03;;;3.57;;
21665;SDS011;10994;45.486;9.190;2023-05-10T17:04:33;3.20;;;2.90;;
21665;SDS011;10994;45.486;9.190;2023-05-10T17:06:59;3.90;;;3.43;;
21665;SDS011;10994;45.486;9.190;2023-05-10T17:09:25;4.07;;;3.67;;
21665;SDS011;10994;45.486;9.190;2023-05-10T17:11:50;20.10;;;14.93;;
21665;SDS011;10994;45.486;9.190;2023-05-10T17:14:16;6.23;;;4.63;;
21665;SDS011;10994;45.486;9.190;2023-05-10T17:16:41;59.57;;;40.00;;
21665;SDS011;10994;45.486;9.190;2023-05-10T17:19:07;4.40;;;4.00;;
21665;SDS011;10994;45.486;9.190;2023-05-10T17:21:35;3.00;;;2.80;;
21665;SDS011;10994;45.486;9.190;2023-05-10T17:24:00;3.30;;;3.00;;
21665;SDS011;10994;45.486;9.190;2023-05-10T17:26:26;3.40;;;3.10;;
21665;SDS011;10994;45.486;9.190;2023-05-10T17:28:54;3.97;;;3.57;;
21665;SDS011;10994;45.486;9.190;2023-05-10T17:31:19;5.50;;;3.77;;
21665;SDS011;10994;45.486;9.190;2023-05-10T17:33:45;3.67;;;3.10;;
21665;SDS011;10994;45.486;9.190;2023-05-10T17:36:11;3.63;;;3.20;;
21665;SDS011;10994;45.486;9.190;2023-05-10T17:38:36;4.73;;;3.63;;
21665;SDS011;10994;45.486;9.190;2023-05-10T17:41:02;3.20;;;2.90;;
21665;SDS011;10994;45.486;9.190;2023-05-10T17:43:28;6.43;;;4.03;;
21665;SDS011;10994;45.486;9.190;2023-05-10T17:45:54;3.80;;;3.47;;
21665;SDS011;10994;45.486;9.190;2023-05-10T17:48:19;8.33;;;6.90;;
21665;SDS011;10994;45.486;9.190;2023-05-10T17:50:48;4.40;;;3.87;;
21665;SDS011;10994;45.486;9.190;2023-05-10T17:53:16;3.17;;;2.87;;
21665;SDS011;10994;45.486;9.190;2023-05-10T17:55:42;3.53;;;3.20;;
21665;SDS011;10994;45.486;9.190;2023-05-10T17:58:09;7.07;;;3.40;;
21665;SDS011;10994;45.486;9.190;2023-05-10T18:00:36;11.67;;;9.73;;
21665;SDS011;10994;45.486;9.190;2023-05-10T18:03:03;10.87;;;8.50;;
21665;SDS011;10994;45.486;9.190;2023-05-10T18:05:33;2.43;;;2.23;;
21665;SDS011;10994;45.486;9.190;2023-05-10T18:08:01;3.57;;;2.83;;
21665;SDS011;10994;45.486;9.190;2023-05-10T18:10:28;5.53;;;2.97;;
21665;SDS011;10994;45.486;9.190;2023-05-10T18:12:54;3.17;;;2.87;;
21665;SDS011;10994;45.486;9.190;2023-05-10T18:15:20;3.10;;;2.80;;
21665;SDS011;10994;45.486;9.190;2023-05-10T18:17:45;3.67;;;3.37;;
21665;SDS011;10994;45.486;9.190;2023-05-10T18:20:13;3.40;;;3.10;;
21665;SDS011;10994;45.486;9.190;2023-05-10T18:22:39;5.00;;;3.70;;
21665;SDS011;10994;45.486;9.190;2023-05-10T18:25:05;3.67;;;3.37;;
21665;SDS011;10994;45.486;9.190;2023-05-10T18:27:31;3.87;;;3.47;;
21665;SDS011;10994;45.486;9.190;2023-05-10T18:29:57;3.40;;;3.07;;
21665;SDS011;10994;45.486;9.190;2023-05-10T18:32:23;3.67;;;3.27;;
21665;SDS011;10994;45.486;9.190;2023-05-10T18:34:48;3.37;;;3.07;;
21665;SDS011;10994;45.486;9.190;2023-05-10T18:37:14;3.47;;;3.00;;
21665;SDS011;10994;45.486;9.190;2023-05-10T18:39:40;3.20;;;2.90;;
21665;SDS011;10994;45.486;9.190;2023-05-10T18:42:06;3.73;;;3.43;;
21665;SDS011;10994;45.486;9.190;2023-05-10T18:44:32;4.13;;;3.07;;
21665;SDS011;10994;45.486;9.190;2023-05-10T18:46:58;3.53;;;3.10;;
21665;SDS011;10994;45.486;9.190;2023-05-10T18:49:24;4.30;;;3.60;;
21665;SDS011;10994;45.486;9.190;2023-05-10T18:51:50;3.30;;;3.00;;
21665;SDS011;10994;45.486;9.190;2023-05-10T18:54:16;3.67;;;3.30;;
21665;SDS011;10994;45.486;9.190;2023-05-10T18:56:42;2.97;;;2.67;;
21665;SDS011;10994;45.486;9.190;2023-05-10T18:59:09;3.60;;;2.90;;
21665;SDS011;10994;45.486;9.190;2023-05-10T19:01:36;4.53;;;3.00;;
21665;SDS011;10994;45.486;9.190;2023-05-10T19:04:02;3.40;;;3.10;;
21665;SDS011;10994;45.486;9.190;2023-05-10T19:06:28;3.23;;;2.93;;
21665;SDS011;10994;45.486;9.190;2023-05-10T19:08:54;52.03;;;33.93;;
21665;SDS011;10994;45.486;9.190;2023-05-10T19:11:19;13.90;;;9.40;;
21665;SDS011;10994;45.486;9.190;2023-05-10T19:13:46;21.10;;;14.60;;
21665;SDS011;10994;45.486;9.190;2023-05-10T19:16:12;13.00;;;9.97;;
21665;SDS011;10994;45.486;9.190;2023-05-10T19:18:40;4.77;;;4.27;;
21665;SDS011;10994;45.486;9.190;2023-05-10T19:21:07;4.63;;;4.13;;
21665;SDS011;10994;45.486;9.190;2023-05-10T19:23:35;3.47;;;3.10;;
21665;SDS011;10994;45.486;9.190;2023-05-10T19:26:02;4.40;;;3.67;;
21665;SDS011;10994;45.486;9.190;2023-05-10T19:28:29;4.13;;;3.17;;
21665;SDS011;10994;45.486;9.190;2023-05-10T19:30:58;4.67;;;4.13;;
21665;SDS011;10994;45.486;9.190;2023-05-10T19:33:23;7.20;;;5.90;;
21665;SDS011;10994;45.486;9.190;2023-05-10T19:35:49;4.40;;;4.00;;
21665;SDS011;10994;45.486;9.190;2023-05-10T19:38:21;5.13;;;4.63;;
21665;SDS011;10994;45.486;9.190;2023-05-10T19:40:48;4.07;;;3.73;;
21665;SDS011;10994;45.486;9.190;2023-05-10T19:43:14;37.97;;;25.70;;
21665;SDS011;10994;45.486;9.190;2023-05-10T19:45:40;50.40;;;35.03;;
21665;SDS011;10994;45.486;9.190;2023-05-10T19:48:06;26.87;;;19.83;;
21665;SDS011;10994;45.486;9.190;2023-05-10T19:50:32;8.00;;;6.17;;
21665;SDS011;10994;45.486;9.190;2023-05-10T19:52:58;5.20;;;4.70;;
21665;SDS011;10994;45.486;9.190;2023-05-10T19:55:26;4.57;;;4.17;;
21665;SDS011;10994;45.486;9.190;2023-05-10T19:57:53;66.73;;;45.77;;
21665;SDS011;10994;45.486;9.190;2023-05-10T20:00:27;64.13;;;43.00;;
21665;SDS011;10994;45.486;9.190;2023-05-10T20:02:53;35.73;;;25.37;;
21665;SDS011;10994;45.486;9.190;2023-05-10T20:05:20;56.20;;;41.73;;
21665;SDS011;10994;45.486;9.190;2023-05-10T20:07:46;7.33;;;6.20;;
21665;SDS011;10994;45.486;9.190;2023-05-10T20:10:11;7.40;;;5.20;;
21665;SDS011;10994;45.486;9.190;2023-05-10T20:12:37;24.80;;;18.90;;
21665;SDS011;10994;45.486;9.190;2023-05-10T20:15:04;12.37;;;9.47;;
21665;SDS011;10994;45.486;9.190;2023-05-10T20:17:32;5.33;;;4.83;;
21665;SDS011;10994;45.486;9.190;2023-05-10T20:19:59;14.07;;;11.30;;
21665;SDS011;10994;45.486;9.190;2023-05-10T20:22:25;30.77;;;26.63;;
21665;SDS011;10994;45.486;9.190;2023-05-10T20:24:51;7.17;;;6.10;;
21665;SDS011;10994;45.486;9.190;2023-05-10T20:27:17;7.27;;;5.80;;
21665;SDS011;10994;45.486;9.190;2023-05-10T20:29:45;6.53;;;5.63;;
21665;SDS011;10994;45.486;9.190;2023-05-10T20:32:10;6.10;;;4.93;;
21665;SDS011;10994;45.486;9.190;2023-05-10T20:34:36;5.53;;;5.03;;
21665;SDS011;10994;45.486;9.190;2023-05-10T20:37:02;7.90;;;6.17;;
21665;SDS011;10994;45.486;9.190;2023-05-10T20:39:27;5.93;;;5.33;;
21665;SDS011;10994;45.486;9.190;2023-05-10T20:41:54;5.93;;;5.13;;
21665;SDS011;10994;45.486;9.190;2023-05-10T20:44:19;6.40;;;5.80;;
21665;SDS011;10994;45.486;9.190;2023-05-10T20:46:45;5.50;;;5.00;;
21665;SDS011;10994;45.486;9.190;2023-05-10T20:49:11;6.53;;;5.17;;
21665;SDS011;10994;45.486;9.190;2023-05-10T20:51:36;5.93;;;5.33;;
21665;SDS011;10994;45.486;9.190;2023-05-10T20:54:02;5.77;;;5.27;;
21665;SDS011;10994;45.486;9.190;2023-05-10T20:56:28;6.13;;;5.53;;
21665;SDS011;10994;45.486;9.190;2023-05-10T20:58:54;5.83;;;5.20;;
21665;SDS011;10994;45.486;9.190;2023-05-10T21:01:20;5.80;;;4.90;;
21665;SDS011;10994;45.486;9.190;2023-05-10T21:03:46;6.33;;;5.43;;
21665;SDS011;10994;45.486;9.190;2023-05-10T21:06:12;5.87;;;5.33;;
21665;SDS011;10994;45.486;9.190;2023-05-10T21:08:38;6.30;;;5.20;;
21665;SDS011;10994;45.486;9.190;2023-05-10T21:11:03;6.47;;;5.87;;
21665;SDS011;10994;45.486;9.190;2023-05-10T21:13:30;7.57;;;6.77;;
21665;SDS011;10994;45.486;9.190;2023-05-10T21:15:59;28.30;;;21.30;;
21665;SDS011;10994;45.486;9.190;2023-05-10T21:18:24;78.67;;;52.83;;
21665;SDS011;10994;45.486;9.190;2023-05-10T21:20:50;53.93;;;42.37;;
21665;SDS011;10994;45.486;9.190;2023-05-10T21:23:16;34.60;;;25.10;;
21665;SDS011;10994;45.486;9.190;2023-05-10T21:25:42;22.00;;;18.97;;
21665;SDS011;10994;45.486;9.190;2023-05-10T21:28:08;26.00;;;22.47;;
21665;SDS011;10994;45.486;9.190;2023-05-10T21:30:33;30.07;;;25.50;;
21665;SDS011;10994;45.486;9.190;2023-05-10T21:32:59;83.67;;;55.63;;
21665;SDS011;10994;45.486;9.190;2023-05-10T21:35:26;57.50;;;43.60;;
21665;SDS011;10994;45.486;9.190;2023-05-10T21:37:53;51.17;;;39.03;;
21665;SDS011;10994;45.486;9.190;2023-05-10T21:40:19;47.20;;;32.13;;
21665;SDS011;10994;45.486;9.190;2023-05-10T21:42:45;120.33;;;76.97;;
21665;SDS011;10994;45.486;9.190;2023-05-10T21:45:13;27.63;;;22.13;;
21665;SDS011;10994;45.486;9.190;2023-05-10T21:47:42;104.63;;;70.63;;
21665;SDS011;10994;45.486;9.190;2023-05-10T21:50:08;13.13;;;10.30;;
21665;SDS011;10994;45.486;9.190;2023-05-10T21:52:34;8.37;;;7.30;;
21665;SDS011;10994;45.486;9.190;2023-05-10T21:55:01;8.40;;;7.50;;
21665;SDS011;10994;45.486;9.190;2023-05-10T21:57:28;7.80;;;6.87;;
21665;SDS011;10994;45.486;9.190;2023-05-10T21:59:54;8.53;;;7.10;;
21665;SDS011;10994;45.486;9.190;2023-05-10T22:02:21;10.60;;;8.70;;
21665;SDS011;10994;45.486;9.190;2023-05-10T22:04:47;16.77;;;10.57;;
21665;SDS011;10994;45.486;9.190;2023-05-10T22:07:12;11.20;;;9.93;;
21665;SDS011;10994;45.486;9.190;2023-05-10T22:09:40;11.30;;;7.30;;
21665;SDS011;10994;45.486;9.190;2023-05-10T22:12:06;17.33;;;15.47;;
21665;SDS011;10994;45.486;9.190;2023-05-10T22:14:33;11.57;;;8.73;;
21665;SDS011;10994;45.486;9.190;2023-05-10T22:16:59;7.23;;;6.53;;
21665;SDS011;10994;45.486;9.190;2023-05-10T22:19:24;15.27;;;11.80;;
21665;SDS011;10994;45.486;9.190;2023-05-10T22:21:51;7.40;;;6.57;;
21665;SDS011;10994;45.486;9.190;2023-05-10T22:24:17;9.53;;;6.77;;
21665;SDS011;10994;45.486;9.190;2023-05-10T22:26:43;17.97;;;13.33;;
21665;SDS011;10994;45.486;9.190;2023-05-10T22:29:08;21.10;;;16.53;;
21665;SDS011;10994;45.486;9.190;2023-05-10T22:31:34;20.87;;;16.30;;
21665;SDS011;10994;45.486;9.190;2023-05-10T22:34:00;17.33;;;13.30;;
21665;SDS011;10994;45.486;9.190;2023-05-10T22:36:25;36.50;;;12.53;;
21665;SDS011;10994;45.486;9.190;2023-05-10T22:38:51;13.00;;;8.97;;
21665;SDS011;10994;45.486;9.190;2023-05-10T22:41:17;9.43;;;8.00;;
21665;SDS011;10994;45.486;9.190;2023-05-10T22:43:42;11.53;;;8.70;;
21665;SDS011;10994;45.486;9.190;2023-05-10T22:46:09;9.30;;;7.90;;
21665;SDS011;10994;45.486;9.190;2023-05-10T22:48:34;9.10;;;7.73;;
21665;SDS011;10994;45.486;9.190;2023-05-10T22:51:00;8.70;;;7.80;;
21665;SDS011;10994;45.486;9.190;2023-05-10T22:53:26;9.13;;;7.90;;
21665;SDS011;10994;45.486;9.190;2023-05-10T22:55:51;11.77;;;8.93;;
21665;SDS011;10994;45.486;9.190;2023-05-10T22:58:17;9.90;;;8.90;;
21665;SDS011;10994;45.486;9.190;2023-05-10T23:00:43;10.20;;;7.73;;
21665;SDS011;10994;45.486;9.190;2023-05-10T23:03:08;8.77;;;7.83;;